createdAt,value
2024-01-15T00:04:24.397Z,26.13
2024-01-15T00:09:27.254Z,29.60
2024-01-15T00:14:29.214Z,26.40
2024-01-15T00:19:30.905Z,23.45
2024-01-15T00:24:33.964Z,22.88
2024-01-15T00:29:35.491Z,16.83
2024-01-15T00:34:37.274Z,19.42
2024-01-15T00:39:40.251Z,16.13
2024-01-15T00:44:43.252Z,18.60
2024-01-15T00:49:44.979Z,21.23
2024-01-15T00:54:48.107Z,17.30
2024-01-15T00:59:49.703Z,24.38
2024-01-15T01:04:51.262Z,18.80
2024-01-15T01:09:54.236Z,25.90
2024-01-15T01:14:55.803Z,21.83
2024-01-15T01:19:57.667Z,23.25
2024-01-15T01:25:00.822Z,23.75
2024-01-15T01:30:02.678Z,23.05
2024-01-15T01:35:05.211Z,25.05
2024-01-15T01:40:09.470Z,22.48
2024-01-15T01:45:11.850Z,22.48
2024-01-15T01:50:14.104Z,29.95
2024-01-15T01:55:17.270Z,25.02
2024-01-15T02:00:19.341Z,21.40
2024-01-15T02:05:21.118Z,21.38
2024-01-15T02:10:24.061Z,27.30
2024-01-15T02:15:25.824Z,25.48
2024-01-15T02:20:27.750Z,25.83
2024-01-15T02:25:30.679Z,25.65
2024-01-15T02:30:32.875Z,24.10
2024-01-15T02:35:34.795Z,21.30
2024-01-15T02:40:39.646Z,22.83
2024-01-15T02:45:41.649Z,16.30
2024-01-15T02:50:43.353Z,15.80
2024-01-15T02:55:46.251Z,17.83
2024-01-15T03:00:47.937Z,18.63
2024-01-15T03:05:49.489Z,22.52
2024-01-15T03:10:52.407Z,14.55
2024-01-15T03:15:53.944Z,18.38
2024-01-15T03:20:55.458Z,17.73
2024-01-15T03:25:58.506Z,20.58
2024-01-15T03:31:00.161Z,17.88
2024-01-15T03:36:01.842Z,18.83
2024-01-15T03:41:04.758Z,19.63
2024-01-15T03:46:06.496Z,18.40
2024-01-15T03:51:08.048Z,16.10
2024-01-15T03:56:10.968Z,18.10
2024-01-15T04:01:13.438Z,17.63
2024-01-15T04:06:15.128Z,19.00
2024-01-15T04:11:18.084Z,14.05
2024-01-15T04:16:19.592Z,14.90
2024-01-15T04:21:21.144Z,12.00
2024-01-15T04:26:24.069Z,12.90
2024-01-15T04:31:26.773Z,12.63
2024-01-15T04:36:28.467Z,11.18
2024-01-15T04:41:31.337Z,6.15
2024-01-15T04:46:32.996Z,9.43
2024-01-15T04:51:35.448Z,8.65
2024-01-15T04:56:38.295Z,8.52
2024-01-15T05:01:39.960Z,9.25
2024-01-15T05:06:41.623Z,12.48
2024-01-15T05:11:44.560Z,10.35
2024-01-15T05:16:47.923Z,9.48
2024-01-15T05:21:49.597Z,14.32
2024-01-15T05:26:52.840Z,14.25
2024-01-15T05:31:54.581Z,12.88
2024-01-15T05:36:56.262Z,15.80
2024-01-15T05:41:59.605Z,18.20
2024-01-15T05:47:01.260Z,19.63
2024-01-15T05:52:02.971Z,19.00
2024-01-15T05:57:05.908Z,19.35
2024-01-15T06:02:07.434Z,16.95
2024-01-15T06:07:09.122Z,21.48
2024-01-15T06:12:12.117Z,15.85
2024-01-15T06:17:13.700Z,15.27
2024-01-15T06:22:15.299Z,16.25
2024-01-15T06:27:18.247Z,15.52
2024-01-15T06:32:19.924Z,18.92
2024-01-15T06:37:21.534Z,17.00
2024-01-15T06:42:24.504Z,15.77
2024-01-15T06:47:26.161Z,14.32
2024-01-15T06:52:27.761Z,19.90
2024-01-15T06:57:30.651Z,15.13
2024-01-15T07:02:32.288Z,16.48
2024-01-15T07:07:34.004Z,19.85
2024-01-15T07:12:37.142Z,14.52
2024-01-15T07:17:38.743Z,17.40
2024-01-15T07:22:40.287Z,15.55
2024-01-15T07:27:43.277Z,16.50
2024-01-15T07:32:44.887Z,18.60
2024-01-15T07:37:46.466Z,18.42
2024-01-15T07:42:49.405Z,15.88
2024-01-15T07:47:51.278Z,12.73
2024-01-15T07:52:52.840Z,15.63
2024-01-15T07:58:02.544Z,16.33
2024-01-15T08:03:08.339Z,12.60
2024-01-15T08:08:09.978Z,13.00
2024-01-15T08:13:13.013Z,17.15
2024-01-15T08:18:14.794Z,12.43
2024-01-15T08:23:16.443Z,9.48
2024-01-15T08:28:19.337Z,11.05
2024-01-15T08:33:22.362Z,24.50
2024-01-15T08:38:24.429Z,10.63
2024-01-15T08:43:27.473Z,8.20
2024-01-15T08:48:29.140Z,11.50
2024-01-15T08:53:30.838Z,10.15
2024-01-15T08:58:33.762Z,9.95
2024-01-15T09:03:35.643Z,8.05
2024-01-15T09:08:37.207Z,10.73
2024-01-15T09:13:40.071Z,11.75
2024-01-15T09:18:41.670Z,7.35
2024-01-15T09:23:43.550Z,6.15
2024-01-15T09:28:46.512Z,7.70
2024-01-15T09:33:48.555Z,8.07
2024-01-15T09:38:50.289Z,5.13
2024-01-15T09:43:53.276Z,9.80
2024-01-15T09:48:54.919Z,4.88
2024-01-15T09:53:56.827Z,5.78
2024-01-15T09:59:00.938Z,3.03
2024-01-15T10:04:02.601Z,3.10
2024-01-15T10:09:04.429Z,2.35
2024-01-15T10:14:07.562Z,2.58
2024-01-15T10:19:09.517Z,2.20
2024-01-15T10:24:11.204Z,2.05
2024-01-15T10:29:15.999Z,2.28
2024-01-15T10:34:17.759Z,2.20
2024-01-15T10:39:19.370Z,2.33
2024-01-15T10:44:22.382Z,3.95
2024-01-15T10:49:24.387Z,1.88
2024-01-15T10:54:28.151Z,2.28
2024-01-15T10:59:31.459Z,2.92
2024-01-15T11:04:33.777Z,3.72
2024-01-15T11:09:36.088Z,2.97
2024-01-15T11:14:42.150Z,3.13
2024-01-15T11:19:45.336Z,3.15
2024-01-15T11:24:47.201Z,4.13
2024-01-15T11:30:04.337Z,7.45
2024-01-15T11:35:06.834Z,3.55
2024-01-15T11:40:08.973Z,5.47
2024-01-15T11:45:11.993Z,2.88
2024-01-15T11:50:13.727Z,2.55
2024-01-15T11:55:20.148Z,3.10
2024-01-15T12:00:24.914Z,1.95
2024-01-15T12:05:26.804Z,1.85
2024-01-15T12:10:28.300Z,1.73
2024-01-15T12:15:31.975Z,2.60
2024-01-15T12:20:33.721Z,2.00
2024-01-15T12:25:35.600Z,3.42
2024-01-15T12:30:38.705Z,3.40
2024-01-15T12:35:40.454Z,2.30
2024-01-15T12:40:46.177Z,4.93
2024-01-15T12:45:51.784Z,2.63
2024-01-15T12:50:53.535Z,3.05
2024-01-15T12:55:55.322Z,2.47
2024-01-15T13:00:58.360Z,2.28
2024-01-15T13:06:00.172Z,2.65
2024-01-15T13:11:01.902Z,2.55
2024-01-15T13:16:05.563Z,2.75
2024-01-15T13:21:07.170Z,2.00
2024-01-15T13:26:08.666Z,2.25
2024-01-15T13:31:11.674Z,1.80
2024-01-15T13:36:13.330Z,3.15
2024-01-15T13:41:14.954Z,3.15
2024-01-15T13:46:17.849Z,2.65
2024-01-15T13:51:19.546Z,3.70
2024-01-15T13:56:21.689Z,4.60
2024-01-15T14:01:25.153Z,4.32
2024-01-15T14:06:26.876Z,5.53
2024-01-15T14:11:28.524Z,4.07
2024-01-15T14:16:31.423Z,3.45
2024-01-15T14:21:33.026Z,4.10
2024-01-15T14:26:34.648Z,4.07
2024-01-15T14:31:37.624Z,5.28
2024-01-15T14:36:39.387Z,6.20
2024-01-15T14:41:40.974Z,7.43
2024-01-15T14:46:43.807Z,3.85
2024-01-15T14:51:45.364Z,4.82
2024-01-15T14:56:46.955Z,6.57
2024-01-15T15:01:51.185Z,6.10
2024-01-15T15:06:52.978Z,7.10
2024-01-15T15:11:54.658Z,7.50
2024-01-15T15:16:57.463Z,7.20
2024-01-15T15:21:59.173Z,7.47
2024-01-15T15:27:00.762Z,9.02
2024-01-15T15:32:03.894Z,5.18
2024-01-15T15:37:05.512Z,6.82
2024-01-15T15:42:07.121Z,6.85
2024-01-15T15:47:10.391Z,7.13
2024-01-15T15:52:11.934Z,6.60
2024-01-15T15:57:13.663Z,5.65
2024-01-15T16:02:16.598Z,4.43
2024-01-15T16:07:18.164Z,5.80
2024-01-15T16:12:19.808Z,5.95
2024-01-15T16:23:15.473Z,5.80
2024-01-15T16:23:43.607Z,4.00
2024-01-15T16:28:06.388Z,3.30
2024-01-15T16:33:09.367Z,3.60
2024-01-15T16:38:11.041Z,3.92
2024-01-15T16:43:12.568Z,4.68
2024-01-15T16:48:15.734Z,6.50
2024-01-15T16:53:17.422Z,5.20
2024-01-15T16:58:19.002Z,7.43
2024-01-15T17:03:22.009Z,6.68
2024-01-15T17:08:23.662Z,7.65
2024-01-15T17:13:25.243Z,4.55
2024-01-15T17:18:28.255Z,6.45
2024-01-15T17:23:30.386Z,4.47
2024-01-15T17:28:31.931Z,4.93
2024-01-15T17:33:34.891Z,4.38
2024-01-15T17:38:36.572Z,5.78
2024-01-15T17:43:38.275Z,5.97
2024-01-15T17:48:41.450Z,8.10
2024-01-15T17:53:43.168Z,6.85
2024-01-15T17:58:44.763Z,8.35
2024-01-15T18:03:47.849Z,4.82
2024-01-15T18:08:49.391Z,6.35
2024-01-15T18:13:51.651Z,7.20
2024-01-15T18:18:54.705Z,6.07
2024-01-15T18:23:56.523Z,6.70
2024-01-15T18:28:58.114Z,6.10
2024-01-15T18:34:01.113Z,5.47
2024-01-15T18:39:02.721Z,6.13
2024-01-15T18:44:04.376Z,6.18
2024-01-15T18:49:07.668Z,7.03
2024-01-15T18:54:09.371Z,6.80
2024-01-15T18:59:11.228Z,7.38
2024-01-15T19:04:14.306Z,8.30
2024-01-15T19:09:15.977Z,9.02
2024-01-15T19:14:17.550Z,8.10
2024-01-15T19:19:20.565Z,6.82
2024-01-15T19:24:22.214Z,10.38
2024-01-15T19:29:23.796Z,5.63
2024-01-15T19:34:26.771Z,5.32
2024-01-15T19:39:28.353Z,7.50
2024-01-15T19:44:30.057Z,6.03
2024-01-15T19:49:33.543Z,5.35
2024-01-15T19:54:35.250Z,5.78
2024-01-15T19:59:36.874Z,6.80
2024-01-15T20:04:39.892Z,12.93
2024-01-15T20:09:41.444Z,5.07
2024-01-15T20:14:43.012Z,4.13
2024-01-15T20:19:46.105Z,6.22
2024-01-15T20:24:48.369Z,4.90
2024-01-15T20:29:50.123Z,9.20
2024-01-15T20:34:53.198Z,6.45
2024-01-15T20:39:54.733Z,7.00
2024-01-15T20:44:56.338Z,7.63
2024-01-15T20:49:59.338Z,5.18
2024-01-15T20:55:01.107Z,5.65
2024-01-15T21:00:02.772Z,5.55
2024-01-15T21:05:07.102Z,7.43
2024-01-15T21:10:09.093Z,6.05
2024-01-15T21:15:10.741Z,9.43
2024-01-15T21:20:14.067Z,6.90
2024-01-15T21:25:15.849Z,8.57
2024-01-15T21:30:17.385Z,9.30
2024-01-15T21:35:20.535Z,10.20
2024-01-15T21:40:22.109Z,8.05
2024-01-15T21:45:23.711Z,8.43
2024-01-15T21:50:26.683Z,8.27
2024-01-15T21:55:28.270Z,8.35
2024-01-15T22:00:29.906Z,10.55
2024-01-15T22:05:32.903Z,8.27
2024-01-15T22:10:34.494Z,10.63
2024-01-15T22:15:36.128Z,6.45
2024-01-15T22:20:39.115Z,8.00
2024-01-15T22:25:41.070Z,9.25
2024-01-15T22:30:42.610Z,9.00
2024-01-15T22:35:45.643Z,5.75
2024-01-15T22:40:47.314Z,9.05
2024-01-15T22:45:49.044Z,6.97
2024-01-15T22:50:52.178Z,6.93
2024-01-15T22:55:53.703Z,7.32
2024-01-15T23:00:55.302Z,7.55
2024-01-15T23:05:58.290Z,7.43
2024-01-15T23:10:59.847Z,6.13
2024-01-15T23:16:01.594Z,6.45
2024-01-15T23:21:04.640Z,6.00
2024-01-15T23:26:06.569Z,5.47
2024-01-15T23:31:08.267Z,6.13
2024-01-15T23:36:11.225Z,6.32
2024-01-15T23:41:18.422Z,7.72
2024-01-15T23:46:20.197Z,8.18
2024-01-15T23:51:23.087Z,5.85
2024-01-15T23:56:24.723Z,5.22
